Time;durP1;ratioP1;P1;durP2;ratioP2;P2;SDS_P1;SDS_P2;PMS_P1;PMS_P2;Temp;Humidity;BMP_temperature;BMP_pressure;BME280_temperature;BME280_humidity;BME280_pressure;Samples;Min_cycle;Max_cycle;Signal;HPM_P1;HPM_P2
2022/09/06 00:01:17;;;;;;;28.27;21.67;;;24.00;70.00;;;;;;4973862;28;20062;-53
2022/09/06 00:03:44;;;;;;;24.17;20.80;;;24.00;70.30;;;;;;4974406;28;20033;-52
2022/09/06 00:06:15;;;;;;;26.17;22.50;;;24.00;70.40;;;;;;4972820;28;20037;-53
2022/09/06 00:08:43;;;;;;;26.67;22.88;;;24.00;70.30;;;;;;4973140;28;20400;-53
2022/09/06 00:11:09;;;;;;;27.83;22.08;;;24.00;70.20;;;;;;4973938;28;20023;-53
2022/09/06 00:13:35;;;;;;;27.50;21.87;;;24.00;70.20;;;;;;4974263;28;20038;-54
2022/09/06 00:16:19;;;;;;;26.48;23.10;;;24.00;70.30;;;;;;4974036;28;20518;-51
2022/09/06 00:18:45;;;;;;;25.73;21.90;;;24.00;70.90;;;;;;4955234;28;20027;-53
2022/09/06 00:21:25;;;;;;;25.10;22.47;;;23.90;70.60;;;;;;4960763;28;20061;-53
2022/09/06 00:23:51;;;;;;;30.75;22.77;;;24.00;70.60;;;;;;4974148;28;20492;-51
2022/09/06 00:26:17;;;;;;;28.67;23.93;;;23.90;70.40;;;;;;4973830;28;20037;-53
2022/09/06 00:28:43;;;;;;;33.72;24.73;;;23.90;70.80;;;;;;4973569;28;20435;-53
2022/09/06 00:31:10;;;;;;;27.83;24.65;;;23.90;70.70;;;;;;4971475;28;20037;-51
2022/09/06 00:33:36;;;;;;;26.27;22.48;;;23.90;70.60;;;;;;4973615;28;20128;-51
2022/09/06 00:36:02;;;;;;;28.47;25.23;;;23.90;70.60;;;;;;4973666;28;20500;-53
2022/09/06 00:38:28;;;;;;;30.70;24.02;;;23.90;70.60;;;;;;4963879;28;20027;-53
2022/09/06 00:40:53;;;;;;;30.57;23.20;;;23.80;70.50;;;;;;4973747;28;20035;-53
2022/09/06 00:43:19;;;;;;;28.37;25.27;;;23.80;70.70;;;;;;4973478;28;20410;-51
2022/09/06 00:45:45;;;;;;;35.70;24.67;;;23.90;71.00;;;;;;4973210;28;20144;-51
2022/09/06 00:48:11;;;;;;;36.10;27.00;;;23.80;70.80;;;;;;4972208;28;20031;-51
2022/09/06 00:50:37;;;;;;;30.50;24.73;;;23.80;70.80;;;;;;4973522;28;20098;-53
2022/09/06 00:53:03;;;;;;;28.13;24.87;;;23.80;70.80;;;;;;4972000;28;20491;-53
2022/09/06 00:55:28;;;;;;;27.43;24.60;;;23.80;70.90;;;;;;4973303;28;20018;-53
2022/09/06 00:57:55;;;;;;;31.90;26.20;;;23.80;71.10;;;;;;4973304;28;20035;-52
2022/09/06 01:00:21;;;;;;;30.02;24.83;;;23.80;71.10;;;;;;4973207;28;20388;-51
2022/09/06 01:02:47;;;;;;;28.27;25.20;;;23.70;71.40;;;;;;4972832;28;20038;-53
2022/09/06 01:05:14;;;;;;;34.20;25.48;;;23.60;71.40;;;;;;4973014;28;20031;-53
2022/09/06 01:07:58;;;;;;;29.15;25.77;;;23.60;71.50;;;;;;4973135;28;20022;-52
2022/09/06 01:10:39;;;;;;;31.38;25.52;;;23.60;71.50;;;;;;4973346;28;20027;-51
2022/09/06 01:13:20;;;;;;;29.10;25.42;;;23.50;72.20;;;;;;4972903;28;20031;-53
2022/09/06 01:16:10;;;;;;;27.83;24.48;;;23.50;72.00;;;;;;4973051;28;20038;-52
2022/09/06 01:18:57;;;;;;;33.55;25.77;;;23.40;72.10;;;;;;4972745;28;20035;-53
2022/09/06 01:21:32;;;;;;;27.95;25.05;;;23.40;72.30;;;;;;4972937;28;20027;-52
2022/09/06 01:24:14;;;;;;;29.67;26.13;;;23.40;72.00;;;;;;4971721;28;20404;-52
2022/09/06 01:26:51;;;;;;;28.15;25.20;;;23.40;72.20;;;;;;4972989;28;20035;-52
2022/09/06 01:29:32;;;;;;;;;;;23.40;72.40;;;;;;4971846;28;20035;-53
2022/09/06 01:32:22;;;;;;;29.58;26.48;;;23.30;72.50;;;;;;4972512;28;20360;-53
2022/09/06 01:34:55;;;;;;;37.80;26.95;;;23.30;72.70;;;;;;4972589;28;20023;-52
2022/09/06 01:37:22;;;;;;;30.98;26.30;;;23.30;72.40;;;;;;4972874;28;20407;-51
2022/09/06 01:39:48;;;;;;;30.17;26.25;;;23.20;72.50;;;;;;4973165;28;20035;-51
2022/09/06 01:42:28;;;;;;;35.10;27.15;;;23.20;72.70;;;;;;4971008;28;20395;-51
2022/09/06 01:44:59;;;;;;;28.75;25.52;;;23.10;72.90;;;;;;4972304;28;20037;-52
2022/09/06 01:47:25;;;;;;;28.30;24.85;;;23.10;73.30;;;;;;4971801;28;20035;-53
2022/09/06 01:49:57;;;;;;;29.53;26.47;;;23.10;73.50;;;;;;4972196;28;20058;-51
2022/09/06 01:52:32;;;;;;;32.67;26.73;;;23.10;73.90;;;;;;4972767;28;20023;-52
2022/09/06 01:55:04;;;;;;;33.22;26.08;;;23.00;73.60;;;;;;4972727;28;20093;-51
2022/09/06 01:57:48;;;;;;;29.05;25.88;;;23.00;73.50;;;;;;4972355;28;20067;-51
2022/09/06 02:00:18;;;;;;;29.52;24.83;;;23.00;73.60;;;;;;5021002;23;20507;-50
2022/09/06 02:03:26;;;;;;;31.65;25.08;;;23.10;73.60;;;;;;4989866;28;20113;-54
2022/09/06 02:06:04;;;;;;;27.90;24.25;;;23.10;73.60;;;;;;4983768;28;20042;-50
2022/09/06 02:08:38;;;;;;;30.92;24.60;;;23.10;73.50;;;;;;4991569;28;20113;-51
2022/09/06 02:11:08;;;;;;;26.48;23.48;;;23.10;73.90;;;;;;4991750;28;20029;-51
2022/09/06 02:13:48;;;;;;;28.75;25.60;;;23.00;73.60;;;;;;4991719;28;20030;-51
2022/09/06 02:16:19;;;;;;;27.50;24.60;;;23.00;73.70;;;;;;4991894;28;20462;-52
2022/09/06 02:19:19;;;;;;;27.35;23.23;;;23.00;73.90;;;;;;4991846;28;20062;-52
2022/09/06 02:21:47;;;;;;;27.38;24.23;;;23.00;74.30;;;;;;4991680;28;20030;-51
2022/09/06 02:24:21;;;;;;;30.52;26.40;;;23.00;74.10;;;;;;4991757;28;20038;-51
2022/09/06 02:26:48;;;;;;;26.63;23.40;;;22.90;74.30;;;;;;4991611;28;20129;-50
2022/09/06 02:29:15;;;;;;;30.25;24.17;;;22.90;74.20;;;;;;4991409;28;20026;-53
2022/09/06 02:31:48;;;;;;;27.77;24.83;;;22.90;74.40;;;;;;4991285;28;20023;-50
2022/09/06 02:34:16;;;;;;;31.98;23.85;;;22.90;74.30;;;;;;4991834;28;20030;-51
2022/09/06 02:36:43;;;;;;;26.55;23.98;;;22.80;74.20;;;;;;4991515;28;20041;-50
2022/09/06 02:39:09;;;;;;;31.95;24.63;;;22.80;74.60;;;;;;4991469;28;20026;-50
2022/09/06 02:41:35;;;;;;;28.30;23.42;;;22.80;74.70;;;;;;4991623;28;20123;-51
2022/09/06 02:44:01;;;;;;;29.58;23.60;;;22.80;74.60;;;;;;4991644;28;20030;-52
2022/09/06 02:46:26;;;;;;;31.70;22.90;;;22.80;74.60;;;;;;4991169;28;20481;-50
2022/09/06 02:48:52;;;;;;;27.00;24.17;;;22.80;74.60;;;;;;4991800;28;20030;-52
2022/09/06 02:51:18;;;;;;;25.73;23.00;;;22.70;74.90;;;;;;4985267;28;20066;-51
2022/09/06 02:53:43;;;;;;;25.80;23.23;;;22.70;75.10;;;;;;4989936;28;20026;-50
2022/09/06 02:56:09;;;;;;;31.97;24.53;;;22.70;75.10;;;;;;4995159;28;20109;-50
2022/09/06 02:58:35;;;;;;;27.85;22.95;;;22.70;75.20;;;;;;4995149;28;20105;-51
2022/09/06 03:01:00;;;;;;;26.47;23.70;;;22.60;75.20;;;;;;4989103;28;20042;-51
2022/09/06 03:03:27;;;;;;;28.83;24.53;;;22.60;75.40;;;;;;4995145;28;20029;-50
2022/09/06 03:05:53;;;;;;;25.90;23.20;;;22.70;75.50;;;;;;4992091;28;20049;-51
2022/09/06 03:08:21;;;;;;;27.92;23.42;;;22.60;75.50;;;;;;4974312;28;20033;-52
2022/09/06 03:10:52;;;;;;;27.40;24.67;;;22.60;75.50;;;;;;4980056;28;20057;-51
2022/09/06 03:13:17;;;;;;;26.10;23.48;;;22.60;75.50;;;;;;4998114;28;20057;-51
2022/09/06 03:15:43;;;;;;;28.88;21.65;;;22.60;75.60;;;;;;4994968;28;20542;-51
2022/09/06 03:18:09;;;;;;;27.57;24.10;;;22.60;75.50;;;;;;4981398;28;20030;-51
2022/09/06 03:20:34;;;;;;;25.87;23.17;;;22.60;75.50;;;;;;4975396;28;20030;-51
2022/09/06 03:23:00;;;;;;;27.40;22.77;;;22.60;75.50;;;;;;4986153;28;20499;-51
2022/09/06 03:25:26;;;;;;;26.53;23.47;;;22.60;75.50;;;;;;4994709;28;20073;-50
2022/09/06 03:27:51;;;;;;;29.93;25.40;;;22.60;75.70;;;;;;4993869;28;20022;-51
2022/09/06 03:30:17;;;;;;;25.57;22.97;;;22.60;75.80;;;;;;4993460;28;20057;-52
2022/09/06 03:32:43;;;;;;;31.97;24.20;;;22.60;75.70;;;;;;4981392;28;20038;-51
2022/09/06 03:35:09;;;;;;;31.50;22.92;;;22.60;75.80;;;;;;4993315;28;20041;-53
2022/09/06 03:37:35;;;;;;;27.77;23.27;;;22.60;75.90;;;;;;4986094;28;20766;-51
2022/09/06 03:40:05;;;;;;;27.90;21.83;;;22.50;76.10;;;;;;4991311;28;20515;-50
2022/09/06 03:42:31;;;;;;;28.77;24.30;;;22.50;76.00;;;;;;4994001;28;20038;-51
2022/09/06 03:44:56;;;;;;;29.27;22.52;;;22.50;76.20;;;;;;4994238;28;20082;-52
2022/09/06 03:47:22;;;;;;;27.13;24.13;;;;;;;;;;4994310;28;20089;-57
2022/09/06 03:49:48;;;;;;;28.37;23.63;;;22.60;75.90;;;;;;4993825;28;20113;-51
2022/09/06 03:52:14;;;;;;;27.95;24.13;;;22.60;76.80;;;;;;4991120;28;20038;-50
2022/09/06 03:54:40;;;;;;;25.13;22.50;;;22.50;76.30;;;;;;4993910;28;20092;-51
2022/09/06 03:57:05;;;;;;;26.30;23.57;;;22.60;76.20;;;;;;4994207;28;20482;-51
2022/09/06 03:59:32;;;;;;;30.97;23.10;;;22.60;76.10;;;;;;4994010;28;20046;-51
2022/09/06 04:01:57;;;;;;;25.95;23.27;;;22.50;75.90;;;;;;4993776;28;20105;-51
2022/09/06 04:04:23;;;;;;;26.57;22.40;;;22.60;76.00;;;;;;4994076;28;20479;-51
2022/09/06 04:06:49;;;;;;;31.67;23.13;;;22.60;75.80;;;;;;4994441;28;20030;-51
2022/09/06 04:09:14;;;;;;;27.98;22.85;;;22.60;75.90;;;;;;4993874;28;20418;-50
2022/09/06 04:11:40;;;;;;;25.90;23.20;;;22.60;75.90;;;;;;4993695;28;20097;-51
2022/09/06 04:14:06;;;;;;;26.07;23.17;;;22.60;76.00;;;;;;4993849;28;20022;-52
2022/09/06 04:16:32;;;;;;;29.13;22.58;;;22.60;76.00;;;;;;4992654;28;20033;-51
2022/09/06 04:18:59;;;;;;;26.08;23.38;;;22.50;76.00;;;;;;4993814;28;20457;-51
2022/09/06 04:21:25;;;;;;;31.15;24.92;;;22.50;76.10;;;;;;4993642;28;20045;-50
2022/09/06 04:23:51;;;;;;;30.60;24.05;;;22.50;76.20;;;;;;4993948;28;20487;-50
2022/09/06 04:26:17;;;;;;;28.00;24.20;;;22.50;76.50;;;;;;4993535;28;20081;-52
2022/09/06 04:28:42;;;;;;;31.95;25.55;;;22.40;76.50;;;;;;4992636;28;20035;-51
2022/09/06 04:31:08;;;;;;;25.60;22.98;;;22.50;76.60;;;;;;4993416;28;20046;-50
2022/09/06 04:33:35;;;;;;;27.30;24.27;;;22.40;77.20;;;;;;4993560;28;20022;-51
2022/09/06 04:36:07;;;;;;;26.40;23.83;;;22.30;77.20;;;;;;4993472;28;20030;-51
2022/09/06 04:38:38;;;;;;;28.42;25.30;;;22.40;77.10;;;;;;4993437;28;20443;-51
2022/09/06 04:41:05;;;;;;;27.25;24.27;;;22.50;76.90;;;;;;4993102;28;20418;-52
2022/09/06 04:43:31;;;;;;;27.67;24.50;;;22.40;76.90;;;;;;4993354;28;20030;-50
2022/09/06 04:46:02;;;;;;;28.95;25.98;;;22.40;76.80;;;;;;4991989;28;20031;-51
2022/09/06 04:48:28;;;;;;;30.52;25.83;;;22.40;76.80;;;;;;4993233;28;20049;-51
2022/09/06 04:50:54;;;;;;;29.73;26.33;;;22.50;76.80;;;;;;4993002;28;20471;-51
2022/09/06 04:53:19;;;;;;;27.73;24.93;;;22.50;76.80;;;;;;4993106;28;20026;-51
2022/09/06 04:55:45;;;;;;;29.35;24.67;;;22.50;76.70;;;;;;4993001;28;20037;-50
2022/09/06 04:58:11;;;;;;;26.73;24.13;;;22.50;76.80;;;;;;4993102;28;20019;-54
2022/09/06 05:00:37;;;;;;;29.67;24.70;;;22.50;76.70;;;;;;4992697;28;20064;-53
2022/09/06 05:03:03;;;;;;;28.45;25.38;;;22.50;76.70;;;;;;4992839;28;20093;-53
2022/09/06 05:05:29;;;;;;;29.02;25.95;;;22.50;76.80;;;;;;4992943;28;20034;-52
2022/09/06 05:07:55;;;;;;;28.47;25.43;;;22.50;76.80;;;;;;4992858;28;20072;-51
2022/09/06 05:10:22;;;;;;;28.42;25.58;;;22.50;77.00;;;;;;4992821;28;20026;-52
2022/09/06 05:12:49;;;;;;;30.00;25.88;;;22.40;77.40;;;;;;4992670;28;20030;-51
2022/09/06 05:15:17;;;;;;;27.58;24.65;;;22.40;77.20;;;;;;4991401;28;20046;-53
2022/09/06 05:17:42;;;;;;;30.42;26.40;;;22.50;77.10;;;;;;4992440;28;20038;-51
2022/09/06 05:20:10;;;;;;;31.80;25.83;;;22.50;77.00;;;;;;4992678;28;20033;-50
2022/09/06 05:22:36;;;;;;;28.70;25.60;;;22.50;77.00;;;;;;4991164;28;20118;-54
2022/09/06 05:25:02;;;;;;;31.08;25.80;;;22.50;76.90;;;;;;4992590;28;20483;-50
2022/09/06 05:27:28;;;;;;;28.53;25.47;;;22.50;76.80;;;;;;4992487;28;20114;-51
2022/09/06 05:29:53;;;;;;;30.60;26.33;;;22.50;76.70;;;;;;4992484;28;20093;-53
2022/09/06 05:32:19;;;;;;;30.23;23.85;;;22.50;76.80;;;;;;4992355;28;20023;-50
2022/09/06 05:34:45;;;;;;;29.42;25.00;;;22.50;76.90;;;;;;4992543;28;20091;-51
2022/09/06 05:37:10;;;;;;;29.13;25.93;;;22.60;77.00;;;;;;4992602;28;20076;-53
2022/09/06 05:39:36;;;;;;;28.73;25.93;;;22.60;77.60;;;;;;4992581;28;20057;-52
2022/09/06 05:42:05;;;;;;;32.53;26.00;;;22.60;76.80;;;;;;4992284;28;20398;-52
2022/09/06 05:44:35;;;;;;;30.83;26.02;;;22.60;76.70;;;;;;4992808;28;20026;-51
2022/09/06 05:47:02;;;;;;;30.00;26.38;;;22.60;77.00;;;;;;4992587;28;20057;-51
2022/09/06 05:49:31;;;;;;;29.25;25.92;;;22.60;77.10;;;;;;4992287;28;20026;-54
2022/09/06 05:51:57;;;;;;;29.33;25.00;;;22.70;77.10;;;;;;4992181;28;20030;-53
2022/09/06 05:54:23;;;;;;;29.58;25.20;;;22.80;77.00;;;;;;4992332;28;20084;-50
2022/09/06 05:56:49;;;;;;;28.67;24.98;;;22.80;76.80;;;;;;4992286;28;20491;-50
2022/09/06 05:59:15;;;;;;;28.60;25.53;;;22.90;76.90;;;;;;4990735;28;20057;-50
2022/09/06 06:01:49;;;;;;;29.88;26.65;;;23.00;76.80;;;;;;4990817;28;20031;-51
2022/09/06 06:04:17;;;;;;;26.88;24.00;;;23.10;77.20;;;;;;4990917;28;20030;-51
2022/09/06 06:06:43;;;;;;;29.38;24.50;;;23.10;76.80;;;;;;4992157;28;20142;-50
2022/09/06 06:09:09;;;;;;;28.42;22.65;;;23.10;76.50;;;;;;4992172;28;20029;-51
2022/09/06 06:11:35;;;;;;;26.60;23.80;;;23.20;76.30;;;;;;4991927;28;20034;-51
2022/09/06 06:14:02;;;;;;;28.08;25.17;;;23.20;76.20;;;;;;4992185;28;20105;-52
2022/09/06 06:16:28;;;;;;;;;;;23.20;75.90;;;;;;4992589;28;20038;-52
2022/09/06 06:18:54;;;;;;;34.38;25.35;;;23.20;76.40;;;;;;4991983;28;19959;-51
2022/09/06 06:21:25;;;;;;;28.10;24.77;;;23.20;75.90;;;;;;4991926;28;20042;-51
2022/09/06 06:23:54;;;;;;;28.30;24.23;;;23.30;76.10;;;;;;4992018;28;20023;-51
2022/09/06 06:26:20;;;;;;;26.23;22.58;;;23.30;76.30;;;;;;4991839;28;20034;-51
2022/09/06 06:28:47;;;;;;;30.60;22.70;;;23.30;76.40;;;;;;4993854;28;20023;-52
2022/09/06 06:31:13;;;;;;;29.95;24.90;;;23.40;76.50;;;;;;4995505;28;20118;-51
2022/09/06 06:33:40;;;;;;;25.40;22.98;;;23.40;76.80;;;;;;4994498;28;20030;-50
2022/09/06 06:36:17;;;;;;;35.85;25.45;;;23.50;76.80;;;;;;4995747;28;20041;-50
2022/09/06 06:38:43;;;;;;;;;;;23.60;76.70;;;;;;4996107;28;20030;-53
2022/09/06 06:41:12;;;;;;;28.92;24.58;;;23.60;77.10;;;;;;4995540;28;19906;-51
2022/09/06 06:43:37;;;;;;;27.00;24.20;;;23.60;76.90;;;;;;4995433;28;20510;-52
2022/09/06 06:46:05;;;;;;;27.60;24.70;;;23.70;76.90;;;;;;4995527;28;20062;-54
2022/09/06 06:48:31;;;;;;;27.17;24.38;;;23.70;76.90;;;;;;4995460;28;20018;-53
2022/09/06 06:50:57;;;;;;;26.83;23.93;;;23.70;76.90;;;;;;4993987;28;20037;-51
2022/09/06 06:53:23;;;;;;;32.63;24.33;;;23.70;77.20;;;;;;4995289;28;20097;-51
2022/09/06 06:55:48;;;;;;;27.03;23.90;;;23.70;77.00;;;;;;4995281;28;20403;-52
2022/09/06 06:58:17;;;;;;;25.63;22.80;;;23.80;76.40;;;;;;4995186;28;20035;-51
2022/09/06 07:00:44;;;;;;;26.33;23.17;;;23.90;76.20;;;;;;4994879;28;20085;-50
2022/09/06 07:03:10;;;;;;;28.88;22.38;;;23.90;75.50;;;;;;4993939;28;20033;-53
2022/09/06 07:05:38;;;;;;;27.25;22.30;;;24.00;75.20;;;;;;4995326;28;20030;-49
2022/09/06 07:08:04;;;;;;;23.73;21.23;;;24.00;75.40;;;;;;4995073;28;20032;-50
2022/09/06 07:10:30;;;;;;;24.85;21.55;;;24.10;74.70;;;;;;4995309;28;20033;-49
2022/09/06 07:12:56;;;;;;;26.50;21.43;;;24.20;74.60;;;;;;4993820;28;20030;-51
2022/09/06 07:15:22;;;;;;;23.95;21.38;;;24.30;74.80;;;;;;4994945;28;20475;-49
2022/09/06 07:17:48;;;;;;;28.47;20.03;;;24.40;74.70;;;;;;4994993;28;20145;-49
2022/09/06 07:20:14;;;;;;;22.87;20.03;;;24.40;74.70;;;;;;4994859;28;20023;-49
2022/09/06 07:22:39;;;;;;;21.13;18.93;;;24.50;74.80;;;;;;4993434;28;20028;-48
2022/09/06 07:25:07;;;;;;;24.23;17.90;;;24.50;74.50;;;;;;4993511;28;20361;-49
2022/09/06 07:27:33;;;;;;;20.02;18.05;;;24.50;74.70;;;;;;4993293;28;20030;-48
2022/09/06 07:29:58;;;;;;;21.87;19.10;;;24.50;74.40;;;;;;4994800;28;20160;-49
2022/09/06 07:32:24;;;;;;;21.70;18.20;;;24.70;74.50;;;;;;4994540;28;20380;-49
2022/09/06 07:34:50;;;;;;;21.83;18.17;;;24.70;74.20;;;;;;4994708;28;20438;-51
2022/09/06 07:37:15;;;;;;;18.80;16.87;;;24.80;73.80;;;;;;4994573;28;20027;-49
2022/09/06 07:39:41;;;;;;;20.77;17.30;;;24.80;73.10;;;;;;4994370;28;20037;-49
2022/09/06 07:42:07;;;;;;;22.17;16.77;;;24.80;73.20;;;;;;4994494;28;20034;-49
2022/09/06 07:44:32;;;;;;;22.43;18.27;;;24.80;73.40;;;;;;4993223;28;20041;-49
2022/09/06 07:47:01;;;;;;;23.43;19.10;;;24.90;73.50;;;;;;4994445;28;20423;-51
2022/09/06 07:49:27;;;;;;;20.85;17.48;;;24.90;73.40;;;;;;4994345;28;20057;-48
2022/09/06 07:51:53;;;;;;;19.47;17.23;;;24.90;73.10;;;;;;4994161;28;20050;-48
2022/09/06 07:54:19;;;;;;;22.83;17.37;;;25.00;73.10;;;;;;4994261;28;20025;-49
2022/09/06 07:56:44;;;;;;;19.23;17.33;;;25.10;73.10;;;;;;4994206;28;20028;-49
2022/09/06 07:59:10;;;;;;;20.60;17.57;;;25.10;72.50;;;;;;4993994;28;20483;-50
2022/09/06 08:01:37;;;;;;;18.47;16.60;;;25.10;71.70;;;;;;4994510;28;20032;-48
2022/09/06 08:04:13;;;;;;;21.77;16.95;;;25.20;71.60;;;;;;4994118;28;20514;-49
2022/09/06 08:06:50;;;;;;;20.65;15.82;;;25.20;72.30;;;;;;4994064;28;20113;-49
2022/09/06 08:09:16;;;;;;;18.25;16.35;;;25.30;71.50;;;;;;4993922;28;20014;-51
2022/09/06 08:11:42;;;;;;;17.70;15.80;;;25.40;70.50;;;;;;4993821;28;20446;-49
2022/09/06 08:14:09;;;;;;;17.93;16.03;;;25.40;70.30;;;;;;4994038;28;20456;-48
2022/09/06 08:16:37;;;;;;;22.55;16.73;;;25.50;70.20;;;;;;4993837;28;20097;-48
2022/09/06 08:19:07;;;;;;;20.15;16.67;;;25.60;70.00;;;;;;4993807;28;20029;-48
2022/09/06 08:21:33;;;;;;;20.20;17.17;;;25.60;70.20;;;;;;4993779;28;20401;-51
2022/09/06 08:24:00;;;;;;;;;;;25.70;69.80;;;;;;4994344;28;20379;-49
2022/09/06 08:26:27;;;;;;;22.85;18.38;;;25.70;69.60;;;;;;4993705;28;19916;-49
2022/09/06 08:28:59;;;;;;;18.52;16.63;;;25.70;69.90;;;;;;4993522;28;20027;-49
2022/09/06 08:31:26;;;;;;;19.80;17.70;;;25.80;69.10;;;;;;4993360;28;20033;-49
2022/09/06 08:33:52;;;;;;;18.45;16.55;;;25.90;69.30;;;;;;4993807;28;20022;-49
2022/09/06 08:36:18;;;;;;;19.83;17.50;;;25.90;68.40;;;;;;4993465;28;20499;-49
2022/09/06 08:38:47;;;;;;;19.07;17.27;;;25.90;68.70;;;;;;4993341;28;20106;-49
2022/09/06 08:41:15;;;;;;;20.15;15.95;;;25.90;68.90;;;;;;4993155;28;20031;-49
2022/09/06 08:43:55;;;;;;;16.85;14.70;;;26.00;68.30;;;;;;4991974;28;20414;-51
2022/09/06 08:46:31;;;;;;;17.65;15.32;;;26.10;67.60;;;;;;4993236;28;20483;-49
2022/09/06 08:48:57;;;;;;;20.10;16.23;;;26.20;67.60;;;;;;4993103;28;20391;-49
2022/09/06 08:51:50;;;;;;;18.65;15.68;;;26.40;67.60;;;;;;4992412;28;20420;-49
2022/09/06 08:55:11;;;;;;;19.60;15.20;;;26.40;67.20;;;;;;4993077;28;20382;-49
2022/09/06 08:57:54;;;;;;;17.63;15.77;;;26.40;65.30;;;;;;4966612;28;20499;-49
2022/09/06 09:00:21;;;;;;;19.38;16.38;;;26.40;66.50;;;;;;4992814;28;20530;-49
2022/09/06 09:03:04;;;;;;;17.35;14.35;;;26.50;67.10;;;;;;4992855;28;20121;-49
2022/09/06 09:05:33;;;;;;;20.83;15.30;;;26.60;66.50;;;;;;4992875;28;20033;-49
2022/09/06 09:08:06;;;;;;;18.60;13.88;;;26.70;65.80;;;;;;4991558;28;20046;-49
2022/09/06 09:10:45;;;;;;;16.38;12.30;;;26.80;65.70;;;;;;4992737;28;20022;-50
2022/09/06 09:13:33;;;;;;;15.20;13.60;;;26.90;65.30;;;;;;4992866;28;20022;-49
2022/09/06 09:16:06;;;;;;;18.08;14.43;;;27.00;64.20;;;;;;4993015;28;20452;-49
2022/09/06 09:18:37;;;;;;;22.48;16.35;;;27.00;64.70;;;;;;4975266;28;20460;-49
2022/09/06 09:21:03;;;;;;;17.15;14.43;;;27.10;64.40;;;;;;4992526;28;20034;-49
2022/09/06 09:23:29;;;;;;;30.52;15.50;;;27.10;64.40;;;;;;4992573;28;20141;-49
2022/09/06 09:26:01;;;;;;;19.20;13.50;;;27.10;64.00;;;;;;4992611;28;20023;-49
2022/09/06 09:28:27;;;;;;;15.23;13.70;;;27.10;63.40;;;;;;4992622;28;20046;-49
2022/09/06 09:30:54;;;;;;;18.07;15.63;;;27.20;64.30;;;;;;4992403;28;20061;-50
2022/09/06 09:33:26;;;;;;;22.88;15.95;;;27.30;64.20;;;;;;4992584;28;20467;-49
2022/09/06 09:35:53;;;;;;;20.55;15.63;;;27.40;63.70;;;;;;4992378;28;20033;-51
2022/09/06 09:38:39;;;;;;;24.95;15.30;;;27.30;62.90;;;;;;4992394;28;20083;-49
2022/09/06 09:41:07;;;;;;;15.88;13.77;;;27.40;62.50;;;;;;4992202;28;20617;-51
2022/09/06 09:43:56;;;;;;;17.20;13.10;;;27.40;63.10;;;;;;4992432;28;20100;-49
2022/09/06 09:46:22;;;;;;;17.20;13.25;;;27.50;62.50;;;;;;4992386;28;20065;-49
2022/09/06 09:49:00;;;;;;;16.33;11.53;;;27.40;62.50;;;;;;4992613;28;20068;-49
2022/09/06 09:51:27;;;;;;;14.43;10.73;;;27.50;62.00;;;;;;4992258;28;20314;-49
2022/09/06 09:53:53;;;;;;;;;;;27.50;61.30;;;;;;4992708;28;20018;-49
2022/09/06 09:56:45;;;;;;;11.90;9.68;;;27.60;60.70;;;;;;4992341;28;19906;-51
2022/09/06 09:59:28;;;;;;;12.73;8.32;;;27.70;61.30;;;;;;4992184;28;20037;-49
2022/09/06 10:01:58;;;;;;;11.93;5.28;;;27.80;60.30;;;;;;4992533;28;20393;-49
2022/09/06 10:04:32;;;;;;;15.05;7.82;;;27.80;59.50;;;;;;4996371;28;20480;-49
2022/09/06 10:07:15;;;;;;;8.95;6.95;;;27.90;58.80;;;;;;4996259;28;20026;-50
2022/09/06 10:09:46;;;;;;;8.05;6.15;;;28.00;59.10;;;;;;4996302;28;20023;-49
2022/09/06 10:12:28;;;;;;;9.93;6.32;;;28.20;59.60;;;;;;4994858;28;20033;-49
2022/09/06 10:14:54;;;;;;;9.95;6.70;;;28.30;56.80;;;;;;4996138;28;20073;-49
2022/09/06 10:17:28;;;;;;;10.45;7.57;;;28.30;58.90;;;;;;4996081;28;20030;-49
2022/09/06 10:19:53;;;;;;;9.80;8.40;;;28.30;58.60;;;;;;4995980;28;20032;-48
2022/09/06 10:22:25;;;;;;;11.10;7.23;;;28.30;59.10;;;;;;4994037;28;20105;-49
2022/09/06 10:25:28;;;;;;;9.90;7.82;;;28.40;59.70;;;;;;4995389;28;20026;-51
2022/09/06 10:28:08;;;;;;;12.07;7.07;;;28.60;58.00;;;;;;4998485;28;20034;-49
2022/09/06 10:30:44;;;;;;;7.57;5.60;;;28.60;56.60;;;;;;4994367;28;20034;-49
2022/09/06 10:33:35;;;;;;;8.63;5.72;;;28.60;57.50;;;;;;4985608;28;20109;-50
2022/09/06 10:36:02;;;;;;;16.23;6.03;;;28.70;54.50;;;;;;4995214;28;20399;-53
2022/09/06 10:38:57;;;;;;;6.88;5.18;;;28.50;55.50;;;;;;4993019;28;20030;-49
2022/09/06 10:41:53;;;;;;;11.55;6.40;;;28.50;56.50;;;;;;4994461;28;20038;-53
2022/09/06 10:45:13;;;;;;;9.27;5.20;;;28.50;56.10;;;;;;4993525;28;20056;-49
2022/09/06 10:47:51;;;;;;;9.30;5.93;;;28.50;56.40;;;;;;4993734;28;20467;-49
2022/09/06 10:50:17;;;;;;;10.38;6.07;;;28.50;56.00;;;;;;4995066;28;20081;-49
2022/09/06 10:52:45;;;;;;;9.77;5.15;;;28.60;56.40;;;;;;4995296;28;20064;-49
2022/09/06 10:55:16;;;;;;;12.23;5.65;;;28.80;55.80;;;;;;4994231;28;20018;-49
2022/09/06 10:57:57;;;;;;;14.23;6.43;;;28.90;57.00;;;;;;4986717;28;20033;-49
2022/09/06 11:00:22;;;;;;;10.05;5.75;;;29.10;57.60;;;;;;4994643;28;20113;-49
2022/09/06 11:03:14;;;;;;;9.77;5.63;;;29.20;56.40;;;;;;4995250;28;20073;-50
2022/09/06 11:05:44;;;;;;;9.55;5.28;;;29.20;54.30;;;;;;4994989;28;20063;-49
2022/09/06 11:08:17;;;;;;;8.07;6.70;;;29.20;55.20;;;;;;4995108;28;20033;-51
2022/09/06 11:10:46;;;;;;;7.70;5.32;;;29.30;55.90;;;;;;4994568;28;20044;-49
2022/09/06 11:13:16;;;;;;;12.55;5.35;;;29.40;55.80;;;;;;4994622;28;20065;-49
2022/09/06 11:15:48;;;;;;;5.75;4.65;;;29.60;53.90;;;;;;4989083;28;20086;-49
2022/09/06 11:18:36;;;;;;;6.63;4.95;;;29.70;54.30;;;;;;4988757;28;20032;-50
2022/09/06 11:21:32;;;;;;;5.57;4.15;;;29.70;54.60;;;;;;4985506;28;20071;-49
2022/09/06 11:24:12;;;;;;;7.50;5.32;;;29.90;54.80;;;;;;4991855;28;20173;-50
2022/09/06 11:26:43;;;;;;;7.85;4.05;;;29.90;53.80;;;;;;4994459;28;20039;-49
2022/09/06 11:29:25;;;;;;;10.38;4.72;;;30.10;52.80;;;;;;4992085;28;20034;-49
2022/09/06 11:31:54;;;;;;;10.00;4.00;;;30.10;52.60;;;;;;4992917;28;20565;-49
2022/09/06 11:34:25;;;;;;;9.75;3.13;;;30.10;49.60;;;;;;4994681;28;20018;-49
2022/09/06 11:36:58;;;;;;;8.57;3.45;;;30.00;50.20;;;;;;4975675;28;20092;-49
2022/09/06 11:39:31;;;;;;;8.00;3.20;;;30.00;50.10;;;;;;4975136;28;20018;-50
2022/09/06 11:41:58;;;;;;;5.00;2.88;;;30.00;49.30;;;;;;4976225;28;20627;-49
2022/09/06 11:44:48;;;;;;;4.32;2.92;;;30.00;51.10;;;;;;4994736;28;20105;-49
2022/09/06 11:47:47;;;;;;;8.57;3.25;;;30.20;52.00;;;;;;4974164;28;20039;-52
2022/09/06 11:50:23;;;;;;;6.72;2.90;;;30.40;51.10;;;;;;4973771;28;20015;-51
2022/09/06 11:53:07;;;;;;;6.18;2.78;;;30.20;50.00;;;;;;4983010;28;20582;-51
2022/09/06 11:55:45;;;;;;;7.40;3.22;;;30.20;51.10;;;;;;4993976;28;20057;-50
2022/09/06 11:58:35;;;;;;;7.72;2.97;;;30.40;51.00;;;;;;4993092;28;20027;-50
2022/09/06 12:01:15;;;;;;;6.28;2.60;;;30.60;51.00;;;;;;4993836;28;20041;-50
2022/09/06 12:03:49;;;;;;;3.78;2.25;;;30.80;49.70;;;;;;4993774;28;20027;-52
2022/09/06 12:06:36;;;;;;;2.75;2.55;;;30.90;48.50;;;;;;4993781;28;20035;-50
2022/09/06 12:09:27;;;;;;;3.53;2.83;;;31.00;48.80;;;;;;4993573;28;20128;-49
2022/09/06 12:11:55;;;;;;;17.33;3.00;;;31.00;48.80;;;;;;4993500;28;20022;-51
2022/09/06 12:14:39;;;;;;;5.45;2.42;;;30.90;47.30;;;;;;4993853;28;20629;-49
2022/09/06 12:17:05;;;;;;;7.65;2.72;;;30.80;46.50;;;;;;4993400;28;20109;-49
2022/09/06 12:19:50;;;;;;;4.65;2.70;;;30.70;47.20;;;;;;4993347;28;20626;-49
2022/09/06 12:22:28;;;;;;;4.78;2.90;;;30.80;48.10;;;;;;4993194;28;20046;-49
2022/09/06 12:25:05;;;;;;;6.63;2.60;;;31.00;47.60;;;;;;4992550;28;20038;-49
2022/09/06 12:27:37;;;;;;;;;;;31.10;46.40;;;;;;4993135;28;20110;-52
2022/09/06 12:30:08;;;;;;;4.85;1.98;;;31.10;46.40;;;;;;4993372;28;19910;-53
2022/09/06 12:32:35;;;;;;;4.78;2.35;;;31.10;47.10;;;;;;4993275;28;20026;-50
2022/09/06 12:35:03;;;;;;;5.00;2.50;;;31.20;47.00;;;;;;4993751;28;20092;-49
2022/09/06 12:37:56;;;;;;;2.70;2.17;;;31.30;45.30;;;;;;4993254;28;20053;-50
2022/09/06 12:40:26;;;;;;;5.80;2.47;;;31.30;44.80;;;;;;4993028;28;20493;-49
2022/09/06 12:42:52;;;;;;;3.17;2.08;;;31.40;45.90;;;;;;4992866;28;20056;-49
2022/09/06 12:45:20;;;;;;;3.90;1.98;;;31.50;45.40;;;;;;4993321;28;20041;-49
2022/09/06 12:47:46;;;;;;;5.13;2.35;;;31.60;45.00;;;;;;4992627;28;20026;-50
2022/09/06 12:50:19;;;;;;;5.55;2.30;;;31.70;45.70;;;;;;4993036;28;20061;-49
2022/09/06 12:52:52;;;;;;;8.60;2.67;;;31.80;43.70;;;;;;4992929;28;20140;-53